Station Historical Data
Daily Summary for November 17, 2017 Units:  English    Metric   Both
Next Day »
Daily Weekly Monthly Yearly Custom
  High: Low: Average:
Temperature: 47.3 °F 41.3 °F 43.4 °F
Dew Point: 44.1 °F 34.5 °F 40.2 °F
Humidity: 92% 75% 89%
Wind Speed: 20.0mph 0.0mph 1.5mph
Wind Gust: 21.0mph - -
Wind- - SE
Pressure: 30.26 in 29.96 in -
Precipitation: 0.00 in    
Historical Graphs
 
 
Tabular Data for November 17, 2017
Time Temperature Dew Point Pressure Wind Wind Speed Wind Gust Humidity Rainfall Rate (Hourly) solar Conditions
00:04 45.1 °F 42.6 °F 29.97 in Calm     91% 0.18 in 0.00 W/m2
00:09 45.2 °F 42.7 °F 29.97 in Calm     91% 0.17 in 0.00 W/m2
00:14 45.2 °F 42.7 °F 29.97 in SSE 11.0 mph 12.0 mph 91% 0.09 in 0.00 W/m2
00:19 45.2 °F 42.7 °F 29.96 in Calm   1.0 mph 91% 0.14 in 0.00 W/m2
00:24 45.3 °F 42.8 °F 29.97 in Calm   1.0 mph 91% 0.06 in 0.00 W/m2
00:29 45.3 °F 42.8 °F 29.97 in Calm   1.0 mph 91% 0.04 in 0.00 W/m2
00:34 45.4 °F 42.9 °F 29.97 in Calm   1.0 mph 91% 0.17 in 0.00 W/m2
00:39 45.4 °F 42.9 °F 29.98 in Calm   1.0 mph 91% 0.15 in 0.00 W/m2
00:44 45.5 °F 43.0 °F 29.97 in South 1.0 mph 1.0 mph 91% 0.13 in 0.00 W/m2
00:49 45.6 °F 43.4 °F 29.97 in Calm   1.0 mph 92% 0.14 in 0.00 W/m2
00:54 45.6 °F 43.1 °F 29.97 in South 9.0 mph 13.0 mph 91% 0.08 in 0.00 W/m2
00:59 45.6 °F 43.4 °F 29.97 in SSW 3.0 mph 13.0 mph 92% 0.06 in 0.00 W/m2
01:04 45.7 °F 43.5 °F 29.97 in Calm   13.0 mph 92% 0.06 in 0.00 W/m2
01:09 45.8 °F 43.6 °F 29.97 in Calm   1.0 mph 92% 0.07 in 0.00 W/m2
01:14 45.8 °F 43.3 °F 29.97 in Calm   1.0 mph 91% 0.26 in 0.00 W/m2
01:19 45.9 °F 43.4 °F 29.97 in SSW 8.0 mph 11.0 mph 91% 0.17 in 0.00 W/m2
01:21 45.9 °F 43.4 °F 29.97 in SSW 6.0 mph 9.0 mph 91% 0.35 in 0.00 W/m2
01:26 45.9 °F 43.4 °F 29.97 in SSW 4.0 mph 9.0 mph 91% 0.16 in 0.00 W/m2
01:31 46.0 °F 43.5 °F 29.97 in Calm     91% 0.09 in 0.00 W/m2
01:36 46.1 °F 43.6 °F 29.97 in Calm     91% 0.09 in 0.00 W/m2
01:41 46.1 °F 43.6 °F 29.97 in Calm     91% 0.07 in 0.00 W/m2
01:46 46.2 °F 44.0 °F 29.98 in Calm     92% 0.18 in 0.00 W/m2
01:47 46.2 °F 44.0 °F 29.98 in Calm     92% 0.21 in 0.00 W/m2
01:52 46.3 °F 44.1 °F 29.98 in Calm     92% 0.12 in 0.00 W/m2
01:57 46.3 °F 44.1 °F 30.00 in WNW 6.0 mph 18.0 mph 92% 0.21 in 0.00 W/m2
02:02 45.9 °F 43.4 °F 29.99 in Calm   1.0 mph 91% 0.27 in 0.00 W/m2
02:07 45.5 °F 43.0 °F 29.99 in Calm     91% 0.17 in 0.00 W/m2
02:12 45.2 °F 42.7 °F 29.99 in Calm   1.0 mph 91% 0.09 in 0.00 W/m2
02:17 45.1 °F 42.6 °F 29.99 in Calm     91% 0.06 in 0.00 W/m2
02:18 45.0 °F 42.5 °F 29.99 in Calm     91% 0.06 in 0.00 W/m2
02:23 44.9 °F 42.4 °F 30.00 in Calm   1.0 mph 91% 0.06 in 0.00 W/m2
02:28 44.8 °F 42.3 °F 30.00 in Calm   1.0 mph 91% 0.06 in 0.00 W/m2
02:33 44.7 °F 42.2 °F 30.00 in Calm     91% 0.13 in 0.00 W/m2
02:38 44.5 °F 42.0 °F 30.00 in Calm     91% 0.12 in 0.00 W/m2
02:43 44.2 °F 41.7 °F 30.00 in Calm     91% 0.06 in 0.00 W/m2
02:48 44.1 °F 41.7 °F 30.00 in Calm     91% 0.04 in 0.00 W/m2
02:53 43.8 °F 41.3 °F 30.01 in Calm     91% 0.00 in 0.00 W/m2
02:58 43.7 °F 41.2 °F 30.01 in Calm     91% 0.00 in 0.00 W/m2
03:03 43.6 °F 41.2 °F 30.01 in Calm     91% 0.00 in 0.00 W/m2
03:08 43.4 °F 41.0 °F 30.01 in Calm     91% 0.00 in 0.00 W/m2
03:13 43.3 °F 40.8 °F 30.01 in Calm     91% 0.00 in 0.00 W/m2
03:18 43.2 °F 40.8 °F 30.01 in Calm     91% 0.00 in 0.00 W/m2
03:23 43.2 °F 40.8 °F 30.01 in Calm     91% 0.00 in 0.00 W/m2
03:28 43.2 °F 40.8 °F 30.01 in Calm     91% 0.00 in 0.00 W/m2
03:33 43.2 °F 40.8 °F 30.01 in Calm     91% 0.00 in 0.00 W/m2
03:38 43.2 °F 40.8 °F 30.01 in Calm     91% 0.00 in 0.00 W/m2
03:43 43.2 °F 40.8 °F 30.01 in Calm     91% 0.00 in 0.00 W/m2
03:48 43.2 °F 40.8 °F 30.02 in Calm     91% 0.00 in 0.00 W/m2
03:53 43.1 °F 40.7 °F 30.02 in Calm     91% 0.00 in 0.00 W/m2
03:58 43.2 °F 40.8 °F 30.02 in Calm     91% 0.00 in 0.00 W/m2
04:03 43.2 °F 40.8 °F 30.02 in Calm     91% 0.10 in 0.00 W/m2
04:08 43.3 °F 40.8 °F 30.02 in Calm     91% 0.10 in 0.00 W/m2
04:13 43.4 °F 41.0 °F 30.03 in Calm     91% 0.10 in 0.00 W/m2
04:18 43.4 °F 41.0 °F 30.03 in Calm     91% 0.06 in 0.00 W/m2
04:23 43.5 °F 41.0 °F 30.03 in Calm     91% 0.06 in 0.00 W/m2
04:28 43.5 °F 41.0 °F 30.03 in Calm     91% 0.06 in 0.00 W/m2
04:33 43.5 °F 41.0 °F 30.04 in SW 5.0 mph 10.0 mph 91% 0.05 in 0.00 W/m2
04:43 43.5 °F 41.0 °F 30.04 in Calm   1.0 mph 91% 0.05 in 0.00 W/m2
04:48 43.5 °F 41.0 °F 30.04 in Calm     91% 0.00 in 0.00 W/m2
04:53 43.4 °F 41.0 °F 30.04 in Calm     91% 0.00 in 0.00 W/m2
04:58 43.3 °F 40.8 °F 30.05 in Calm   11.0 mph 91% 0.43 in 0.00 W/m2
05:03 42.9 °F 40.5 °F 30.05 in Calm   10.0 mph 91% 0.09 in 0.00 W/m2
05:08 42.7 °F 40.3 °F 30.06 in Calm     91% 0.05 in 0.00 W/m2
05:13 42.6 °F 40.2 °F 30.06 in Calm     91% 0.04 in 0.00 W/m2
05:18 42.5 °F 40.1 °F 30.06 in Calm     91% 0.00 in 0.00 W/m2
05:23 42.4 °F 40.0 °F 30.07 in Calm   10.0 mph 91% 0.00 in 0.00 W/m2
05:28 42.2 °F 39.8 °F 30.07 in Calm   1.0 mph 91% 0.00 in 0.00 W/m2
05:33 42.0 °F 39.6 °F 30.07 in Calm     91% 0.00 in 0.00 W/m2
05:38 41.8 °F 39.4 °F 30.07 in Calm     91% 0.00 in 0.00 W/m2
05:43 41.8 °F 39.4 °F 30.08 in Calm     91% 0.00 in 0.00 W/m2
05:48 41.7 °F 39.3 °F 30.08 in Calm     91% 0.00 in 0.00 W/m2
05:53 41.6 °F 39.2 °F 30.08 in Calm     91% 0.00 in 0.00 W/m2
05:58 41.6 °F 39.2 °F 30.08 in Calm     91% 0.00 in 0.00 W/m2
06:03 41.5 °F 39.1 °F 30.09 in Calm     91% 0.00 in 0.00 W/m2
06:08 41.6 °F 39.2 °F 30.09 in Calm     91% 0.00 in 0.00 W/m2
06:13 41.6 °F 39.2 °F 30.09 in Calm     91% 0.00 in 0.00 W/m2
06:18 41.6 °F 39.2 °F 30.09 in Calm     91% 0.00 in 0.00 W/m2
06:23 41.6 °F 39.2 °F 30.10 in Calm     91% 0.00 in 0.00 W/m2
06:28 41.6 °F 39.2 °F 30.10 in Calm     91% 0.00 in 0.00 W/m2
06:33 41.6 °F 39.2 °F 30.10 in Calm     91% 0.00 in 0.00 W/m2
06:38 41.6 °F 39.2 °F 30.11 in Calm     91% 0.00 in 0.00 W/m2
06:43 41.5 °F 39.1 °F 30.11 in Calm     91% 0.00 in 0.00 W/m2
06:48 41.5 °F 39.1 °F 30.11 in Calm     91% 0.00 in 0.00 W/m2
06:53 41.5 °F 39.1 °F 30.12 in Calm     91% 0.00 in 5.00 W/m2
06:58 41.5 °F 39.1 °F 30.12 in Calm     91% 0.00 in 5.00 W/m2
07:03 41.5 °F 39.1 °F 30.12 in Calm     91% 0.00 in 7.00 W/m2
07:08 41.5 °F 39.1 °F 30.13 in Calm     91% 0.00 in 11.00 W/m2
07:14 41.4 °F 39.0 °F 30.13 in Calm     91% 0.00 in 12.00 W/m2
07:19 41.4 °F 39.0 °F 30.13 in Calm     91% 0.00 in 14.00 W/m2
07:24 41.4 °F 39.0 °F 30.14 in Calm     91% 0.00 in 19.00 W/m2
07:29 41.4 °F 39.0 °F 30.14 in Calm     91% 0.00 in 21.00 W/m2
07:34 41.3 °F 38.9 °F 30.15 in Calm     91% 0.00 in 30.00 W/m2
07:39 41.3 °F 38.9 °F 30.15 in Calm     91% 0.00 in 44.00 W/m2
07:44 41.3 °F 38.9 °F 30.15 in Calm     91% 0.00 in 53.00 W/m2
07:49 41.4 °F 39.0 °F 30.16 in Calm     91% 0.00 in 63.00 W/m2
07:54 41.4 °F 39.0 °F 30.16 in Calm     91% 0.00 in 83.00 W/m2
07:59 41.4 °F 39.0 °F 30.16 in Calm     91% 0.00 in 60.00 W/m2
08:04 41.5 °F 39.1 °F 30.17 in Calm     91% 0.00 in 44.00 W/m2
08:09 41.5 °F 39.1 °F 30.17 in Calm     91% 0.00 in 32.00 W/m2
08:14 41.5 °F 39.1 °F 30.17 in Calm     91% 0.00 in 33.00 W/m2
08:19 41.6 °F 39.2 °F 30.17 in Calm     91% 0.00 in 172.00 W/m2
08:24 41.6 °F 39.2 °F 30.17 in Calm     91% 0.00 in 97.00 W/m2
08:29 41.6 °F 39.2 °F 30.18 in Calm     91% 0.00 in 105.00 W/m2
08:34 41.6 °F 39.2 °F 30.18 in Calm     91% 0.00 in 81.00 W/m2
08:39 41.6 °F 39.2 °F 30.18 in Calm     91% 0.00 in 169.00 W/m2
08:44 41.6 °F 39.2 °F 30.19 in Calm     91% 0.00 in 295.00 W/m2
08:49 41.7 °F 39.3 °F 30.19 in Calm     91% 0.00 in 116.00 W/m2
08:54 41.7 °F 39.5 °F 30.19 in Calm     92% 0.00 in 214.00 W/m2
08:59 41.8 °F 39.7 °F 30.19 in Calm     92% 0.00 in 62.00 W/m2
09:04 41.8 °F 39.7 °F 30.19 in Calm     92% 0.00 in 316.00 W/m2
09:09 41.9 °F 39.8 °F 30.19 in Calm     92% 0.00 in 350.00 W/m2
09:14 41.9 °F 39.8 °F 30.20 in Calm     92% 0.00 in 188.00 W/m2
09:19 42.0 °F 39.8 °F 30.20 in Calm     92% 0.00 in 390.00 W/m2
09:24 42.2 °F 40.0 °F 30.20 in Calm     92% 0.00 in 468.00 W/m2
09:29 42.4 °F 40.2 °F 30.21 in Calm     92% 0.00 in 483.00 W/m2
09:34 42.6 °F 40.4 °F 30.21 in Calm   2.0 mph 92% 0.00 in 494.00 W/m2
09:39 42.7 °F 40.5 °F 30.22 in Calm   1.0 mph 92% 0.00 in 462.00 W/m2
09:44 42.9 °F 40.7 °F 30.22 in Calm     92% 0.00 in 468.00 W/m2
09:49 43.1 °F 40.9 °F 30.22 in Calm     92% 0.00 in 464.00 W/m2
10:00 43.5 °F 41.3 °F 30.22 in Calm     92% 0.00 in 485.00 W/m2
10:05 43.6 °F 41.4 °F 30.22 in Calm     92% 0.00 in 455.00 W/m2
10:10 43.6 °F 41.4 °F 30.23 in Calm     92% 0.00 in 605.00 W/m2
10:12 43.7 °F 41.5 °F 30.23 in Calm   1.0 mph 92% 0.00 in 519.00 W/m2
10:17 43.7 °F 41.5 °F 30.23 in Calm     92% 0.00 in 163.00 W/m2
10:22 43.6 °F 41.4 °F 30.23 in Calm     92% 0.00 in 91.00 W/m2
10:27 43.6 °F 41.4 °F 30.23 in Calm     92% 0.00 in 83.00 W/m2
10:29 43.5 °F 41.3 °F 30.23 in Calm     92% 0.00 in 172.00 W/m2
10:34 43.5 °F 41.3 °F 30.24 in Calm     92% 0.00 in 100.00 W/m2
10:39 43.5 °F 41.3 °F 30.24 in Calm     92% 0.00 in 512.00 W/m2
10:44 43.4 °F 41.2 °F 30.24 in Calm     92% 0.00 in 114.00 W/m2
10:49 43.5 °F 41.3 °F 30.24 in Calm     92% 0.00 in 592.00 W/m2
10:54 43.5 °F 41.3 °F 30.24 in Calm     92% 0.00 in 589.00 W/m2
10:59 43.6 °F 41.4 °F 30.24 in Calm     92% 0.00 in 84.00 W/m2
11:04 43.5 °F 41.3 °F 30.24 in Calm     92% 0.00 in 62.00 W/m2
11:09 43.4 °F 41.2 °F 30.23 in Calm     92% 0.00 in 104.00 W/m2
11:14 43.4 °F 41.2 °F 30.23 in Calm     92% 0.00 in 90.00 W/m2
11:19 43.2 °F 40.8 °F 30.23 in Calm     91% 0.00 in 610.00 W/m2
11:29 43.1 °F 40.9 °F 30.23 in Calm     92% 0.00 in 580.00 W/m2
11:34 43.2 °F 41.0 °F 30.23 in Calm     92% 0.00 in 584.00 W/m2
11:39 43.3 °F 41.1 °F 30.23 in Calm   4.0 mph 92% 0.00 in 585.00 W/m2
11:44 43.5 °F 41.3 °F 30.23 in Calm   1.0 mph 92% 0.00 in 582.00 W/m2
11:49 43.7 °F 41.5 °F 30.23 in Calm     92% 0.00 in 585.00 W/m2
11:54 43.9 °F 41.7 °F 30.23 in Calm     92% 0.00 in 587.00 W/m2
11:59 43.8 °F 41.6 °F 30.23 in Calm     92% 0.00 in 601.00 W/m2
12:05 43.7 °F 41.5 °F 30.23 in Calm   1.0 mph 92% 0.00 in 580.00 W/m2
12:10 43.8 °F 41.6 °F 30.22 in Calm     92% 0.00 in 575.00 W/m2
12:15 43.8 °F 41.6 °F 30.22 in Calm   2.0 mph 92% 0.00 in 570.00 W/m2
12:20 43.8 °F 41.6 °F 30.22 in Calm   2.0 mph 92% 0.00 in 573.00 W/m2
12:25 44.0 °F 41.8 °F 30.22 in NNE 1.0 mph 2.0 mph 92% 0.00 in 584.00 W/m2
12:30 44.3 °F 42.1 °F 30.22 in Calm   1.0 mph 92% 0.00 in 585.00 W/m2
12:35 44.5 °F 42.3 °F 30.22 in Calm     92% 0.00 in 568.00 W/m2
12:40 44.6 °F 42.4 °F 30.22 in Calm   2.0 mph 92% 0.00 in 598.00 W/m2
12:45 44.6 °F 42.4 °F 30.22 in Calm   2.0 mph 92% 0.00 in 107.00 W/m2
12:50 44.6 °F 42.4 °F 30.22 in Calm   1.0 mph 92% 0.00 in 146.00 W/m2
12:55 44.7 °F 42.2 °F 30.22 in Calm     91% 0.00 in 74.00 W/m2
13:00 44.8 °F 42.3 °F 30.22 in Calm     91% 0.00 in 58.00 W/m2
13:05 44.6 °F 42.1 °F 30.22 in Calm     91% 0.00 in 76.00 W/m2
13:10 44.6 °F 42.1 °F 30.22 in Calm     91% 0.00 in 97.00 W/m2
13:15 44.7 °F 42.2 °F 30.22 in Calm     91% 0.00 in 533.00 W/m2
13:20 44.7 °F 42.0 °F 30.22 in Calm     90% 0.00 in 62.00 W/m2
13:25 44.7 °F 42.0 °F 30.22 in Calm     90% 0.00 in 501.00 W/m2
13:30 44.8 °F 42.0 °F 30.22 in Calm     90% 0.00 in 522.00 W/m2
13:35 44.8 °F 42.0 °F 30.22 in Calm     90% 0.00 in 494.00 W/m2
13:40 44.9 °F 42.4 °F 30.22 in Calm   2.0 mph 91% 0.00 in 478.00 W/m2
13:45 45.3 °F 42.8 °F 30.22 in Calm   3.0 mph 91% 0.00 in 457.00 W/m2
13:50 45.4 °F 42.9 °F 30.22 in Calm   3.0 mph 91% 0.00 in 439.00 W/m2
13:55 45.7 °F 42.9 °F 30.22 in Calm   2.0 mph 90% 0.00 in 431.00 W/m2
14:00 45.9 °F 42.8 °F 30.22 in Calm   2.0 mph 89% 0.00 in 424.00 W/m2
14:05 46.3 °F 42.7 °F 30.22 in Calm   2.0 mph 87% 0.00 in 410.00 W/m2
14:10 46.4 °F 42.5 °F 30.22 in Calm   2.0 mph 86% 0.00 in 396.00 W/m2
14:15 46.6 °F 42.0 °F 30.22 in Calm   2.0 mph 84% 0.00 in 387.00 W/m2
14:20 46.8 °F 42.2 °F 30.22 in Calm     84% 0.00 in 376.00 W/m2
14:25 46.9 °F 42.0 °F 30.22 in Calm   2.0 mph 83% 0.00 in 362.00 W/m2
14:30 47.0 °F 41.8 °F 30.22 in Calm   3.0 mph 82% 0.00 in 350.00 W/m2
14:35 47.1 °F 41.9 °F 30.22 in Calm     82% 0.00 in 338.00 W/m2
14:40 47.3 °F 43.0 °F 30.22 in Calm   4.0 mph 85% 0.00 in 327.00 W/m2
14:45 47.1 °F 42.8 °F 30.22 in Calm   3.0 mph 85% 0.00 in 315.00 W/m2
14:50 47.0 °F 42.4 °F 30.22 in Calm   3.0 mph 84% 0.00 in 302.00 W/m2
14:55 47.0 °F 42.4 °F 30.22 in Calm   3.0 mph 84% 0.00 in 290.00 W/m2
15:00 46.9 °F 42.3 °F 30.22 in NW 1.0 mph 6.0 mph 84% 0.00 in 274.00 W/m2
15:05 47.0 °F 42.4 °F 30.22 in Calm   2.0 mph 84% 0.00 in 260.00 W/m2
15:10 47.0 °F 42.4 °F 30.22 in WNW 2.0 mph 4.0 mph 84% 0.00 in 246.00 W/m2
15:15 47.0 °F 42.4 °F 30.22 in Calm   3.0 mph 84% 0.00 in 232.00 W/m2
15:20 47.0 °F 42.7 °F 30.22 in NW 2.0 mph 7.0 mph 85% 0.00 in 216.00 W/m2
15:25 46.8 °F 42.5 °F 30.23 in NW 1.0 mph 3.0 mph 85% 0.00 in 200.00 W/m2
15:30 46.7 °F 42.4 °F 30.23 in Calm   2.0 mph 85% 0.00 in 181.00 W/m2
15:35 46.6 °F 42.6 °F 30.23 in Calm   3.0 mph 86% 0.00 in 160.00 W/m2
15:40 46.5 °F 42.5 °F 30.23 in NNW 3.0 mph 6.0 mph 86% 0.00 in 144.00 W/m2
15:45 46.5 °F 42.8 °F 30.23 in Calm   5.0 mph 87% 0.00 in 127.00 W/m2
15:50 46.4 °F 43.0 °F 30.23 in NNW 3.0 mph 5.0 mph 88% 0.00 in 109.00 W/m2
15:55 46.1 °F 42.8 °F 30.23 in Calm   6.0 mph 88% 0.00 in 95.00 W/m2
16:00 46.0 °F 43.0 °F 30.23 in Calm   6.0 mph 89% 0.00 in 79.00 W/m2
16:05 45.9 °F 42.8 °F 30.23 in North 1.0 mph 5.0 mph 89% 0.00 in 65.00 W/m2
16:10 45.7 °F 42.7 °F 30.23 in Calm   5.0 mph 89% 0.00 in 49.00 W/m2
16:15 45.5 °F 42.7 °F 30.23 in Calm   5.0 mph 90% 0.00 in 37.00 W/m2
16:20 45.4 °F 42.3 °F 30.23 in Calm   7.0 mph 89% 0.00 in 28.00 W/m2
16:25 45.2 °F 42.5 °F 30.23 in North 1.0 mph 6.0 mph 90% 0.00 in 19.00 W/m2
16:30 45.1 °F 42.3 °F 30.24 in North 5.0 mph 7.0 mph 90% 0.00 in 14.00 W/m2
16:35 45.0 °F 42.2 °F 30.23 in North 5.0 mph 8.0 mph 90% 0.00 in 12.00 W/m2
16:40 44.8 °F 42.0 °F 30.24 in North 3.0 mph 3.0 mph 90% 0.00 in 11.00 W/m2
16:45 44.7 °F 42.0 °F 30.24 in Calm     90% 0.00 in 7.00 W/m2
16:50 44.4 °F 41.7 °F 30.24 in North 1.0 mph 2.0 mph 90% 0.00 in 5.00 W/m2
16:55 44.2 °F 41.5 °F 30.24 in North 2.0 mph 2.0 mph 90% 0.00 in 0.00 W/m2
17:00 44.0 °F 41.3 °F 30.24 in Calm     90% 0.00 in 0.00 W/m2
17:05 43.9 °F 41.2 °F 30.24 in Calm     90% 0.00 in 0.00 W/m2
17:10 43.9 °F 41.2 °F 30.24 in Calm     90% 0.00 in 0.00 W/m2
17:15 43.8 °F 41.1 °F 30.24 in Calm     90% 0.00 in 0.00 W/m2
17:20 43.8 °F 41.1 °F 30.24 in Calm     90% 0.00 in 0.00 W/m2
17:25 43.6 °F 40.9 °F 30.23 in Calm     90% 0.00 in 0.00 W/m2
17:30 43.5 °F 40.8 °F 30.24 in Calm     90% 0.00 in 0.00 W/m2
17:36 43.4 °F 40.7 °F 30.23 in Calm     90% 0.00 in 0.00 W/m2
17:41 43.4 °F 40.7 °F 30.23 in NNE 1.0 mph 1.0 mph 90% 0.00 in 0.00 W/m2
17:46 43.3 °F 40.6 °F 30.23 in Calm     90% 0.00 in 0.00 W/m2
17:51 43.3 °F 40.6 °F 30.23 in Calm     90% 0.00 in 0.00 W/m2
17:56 43.3 °F 40.6 °F 30.23 in Calm     90% 0.00 in 0.00 W/m2
18:01 43.3 °F 40.6 °F 30.23 in Calm     90% 0.00 in 0.00 W/m2
18:06 43.2 °F 40.5 °F 30.23 in Calm     90% 0.00 in 0.00 W/m2
18:11 43.1 °F 40.4 °F 30.23 in Calm     90% 0.00 in 0.00 W/m2
18:16 43.0 °F 40.3 °F 30.23 in Calm   5.0 mph 90% 0.00 in 0.00 W/m2
18:21 43.0 °F 40.3 °F 30.24 in Calm     90% 0.00 in 0.00 W/m2
18:26 42.9 °F 40.2 °F 30.24 in ENE 1.0 mph 3.0 mph 90% 0.00 in 0.00 W/m2
18:31 42.8 °F 40.1 °F 30.23 in Calm     90% 0.00 in 0.00 W/m2
18:36 42.7 °F 40.0 °F 30.23 in Calm     90% 0.00 in 0.00 W/m2
18:41 42.5 °F 39.8 °F 30.23 in Calm     90% 0.00 in 0.00 W/m2
18:46 42.3 °F 39.6 °F 30.23 in Calm   6.0 mph 90% 0.00 in 0.00 W/m2
18:51 42.1 °F 39.4 °F 30.23 in East 5.0 mph 6.0 mph 90% 0.00 in 0.00 W/m2
18:56 41.9 °F 39.2 °F 30.23 in East 4.0 mph 6.0 mph 90% 0.00 in 0.00 W/m2
19:01 41.8 °F 39.1 °F 30.23 in East 6.0 mph 6.0 mph 90% 0.00 in 0.00 W/m2
19:06 41.7 °F 39.0 °F 30.23 in Calm   13.0 mph 90% 0.00 in 0.00 W/m2
19:19 41.5 °F 38.8 °F 30.23 in East 6.0 mph 12.0 mph 90% 0.00 in 0.00 W/m2
19:20 41.5 °F 38.8 °F 30.23 in East 4.0 mph 12.0 mph 90% 0.00 in 0.00 W/m2
19:21 41.5 °F 38.8 °F 30.23 in Calm   8.0 mph 90% 0.00 in 0.00 W/m2
19:23 41.5 °F 38.8 °F 30.24 in East 5.0 mph 9.0 mph 90% 0.00 in 0.00 W/m2
19:26 41.6 °F 38.6 °F 30.24 in Calm   8.0 mph 89% 0.00 in 0.00 W/m2
19:27 41.6 °F 38.6 °F 30.24 in Calm   8.0 mph 89% 0.00 in 0.00 W/m2
19:32 41.6 °F 38.6 °F 30.24 in Calm   7.0 mph 89% 0.00 in 0.00 W/m2
19:33 41.6 °F 38.6 °F 30.24 in East 12.0 mph 13.0 mph 89% 0.00 in 0.00 W/m2
19:38 41.6 °F 38.3 °F 30.24 in Calm   13.0 mph 88% 0.00 in 0.00 W/m2
19:43 41.6 °F 38.0 °F 30.24 in East 1.0 mph 15.0 mph 87% 0.00 in 0.00 W/m2
19:48 41.6 °F 38.0 °F 30.24 in Calm   9.0 mph 87% 0.00 in 0.00 W/m2
19:53 41.6 °F 38.0 °F 30.24 in East 2.0 mph 12.0 mph 87% 0.00 in 0.00 W/m2
19:58 41.5 °F 37.6 °F 30.24 in East 2.0 mph 14.0 mph 86% 0.00 in 0.00 W/m2
20:03 41.6 °F 37.7 °F 30.24 in Calm   12.0 mph 86% 0.00 in 0.00 W/m2
20:08 41.5 °F 37.6 °F 30.24 in ESE 8.0 mph 13.0 mph 86% 0.00 in 0.00 W/m2
20:13 41.5 °F 37.3 °F 30.24 in East 6.0 mph 12.0 mph 85% 0.00 in 0.00 W/m2
20:18 41.5 °F 37.0 °F 30.24 in Calm   15.0 mph 84% 0.00 in 0.00 W/m2
20:23 41.5 °F 37.0 °F 30.25 in East 4.0 mph 13.0 mph 84% 0.00 in 0.00 W/m2
20:28 41.6 °F 37.1 °F 30.24 in ESE 4.0 mph 12.0 mph 84% 0.00 in 0.00 W/m2
20:33 41.6 °F 37.1 °F 30.25 in East 1.0 mph 16.0 mph 84% 0.00 in 0.00 W/m2
20:38 41.5 °F 36.7 °F 30.25 in East 6.0 mph 12.0 mph 83% 0.00 in 0.00 W/m2
20:43 41.6 °F 36.8 °F 30.25 in ESE 7.0 mph 14.0 mph 83% 0.00 in 0.00 W/m2
20:49 41.6 °F 36.5 °F 30.25 in Calm   11.0 mph 82% 0.00 in 0.00 W/m2
20:54 41.6 °F 36.5 °F 30.25 in ESE 4.0 mph 13.0 mph 82% 0.00 in 0.00 W/m2
20:59 41.5 °F 36.1 °F 30.25 in ESE 7.0 mph 11.0 mph 81% 0.00 in 0.00 W/m2
21:04 41.6 °F 36.2 °F 30.25 in East 9.0 mph 13.0 mph 81% 0.00 in 0.00 W/m2
21:09 41.5 °F 36.1 °F 30.25 in Calm   12.0 mph 81% 0.00 in 0.00 W/m2
21:14 41.5 °F 36.1 °F 30.25 in East 8.0 mph 12.0 mph 81% 0.00 in 0.00 W/m2
21:19 41.5 °F 36.1 °F 30.25 in Calm   9.0 mph 81% 0.00 in 0.00 W/m2
21:24 41.5 °F 36.1 °F 30.25 in ESE 1.0 mph 14.0 mph 81% 0.00 in 0.00 W/m2
21:29 41.4 °F 35.7 °F 30.25 in East 6.0 mph 16.0 mph 80% 0.00 in 0.00 W/m2
21:34 41.4 °F 36.0 °F 30.26 in East 5.0 mph 6.0 mph 81% 0.00 in 0.00 W/m2
21:39 41.4 °F 35.4 °F 30.26 in ESE 12.0 mph 21.0 mph 79% 0.00 in 0.00 W/m2
21:44 41.4 °F 36.0 °F 30.26 in Calm   21.0 mph 81% 0.00 in 0.00 W/m2
21:49 41.4 °F 35.7 °F 30.25 in Calm   16.0 mph 80% 0.00 in 0.00 W/m2
21:54 41.4 °F 35.4 °F 30.26 in East 7.0 mph 15.0 mph 79% 0.00 in 0.00 W/m2
21:59 41.3 °F 35.3 °F 30.26 in Calm   15.0 mph 79% 0.00 in 0.00 W/m2
22:04 41.3 °F 35.0 °F 30.26 in East 5.0 mph 19.0 mph 78% 0.00 in 0.00 W/m2
22:09 41.4 °F 35.4 °F 30.26 in East 8.0 mph 16.0 mph 79% 0.00 in 0.00 W/m2
22:14 41.4 °F 35.1 °F 30.26 in ESE 7.0 mph 20.0 mph 78% 0.00 in 0.00 W/m2
22:19 41.4 °F 35.1 °F 30.26 in East 13.0 mph 18.0 mph 78% 0.00 in 0.00 W/m2
22:24 41.5 °F 35.2 °F 30.26 in Calm   19.0 mph 78% 0.00 in 0.00 W/m2
22:29 41.5 °F 35.2 °F 30.26 in East 12.0 mph 19.0 mph 78% 0.00 in 0.00 W/m2
22:34 41.6 °F 35.3 °F 30.26 in ENE 12.0 mph 19.0 mph 78% 0.00 in 0.00 W/m2
22:39 41.6 °F 35.3 °F 30.26 in ESE 5.0 mph 16.0 mph 78% 0.00 in 0.00 W/m2
22:44 41.5 °F 35.2 °F 30.26 in East 13.0 mph 17.0 mph 78% 0.00 in 0.00 W/m2
22:49 41.5 °F 34.8 °F 30.26 in East 12.0 mph 20.0 mph 77% 0.00 in 0.00 W/m2
22:54 41.6 °F 34.9 °F 30.25 in ENE 11.0 mph 20.0 mph 77% 0.00 in 0.00 W/m2
22:59 41.6 °F 34.9 °F 30.25 in ESE 7.0 mph 18.0 mph 77% 0.00 in 0.00 W/m2
23:04 41.7 °F 35.4 °F 30.26 in ESE 4.0 mph 15.0 mph 78% 0.00 in 0.00 W/m2
23:09 41.7 °F 34.7 °F 30.26 in East 6.0 mph 21.0 mph 76% 0.00 in 0.00 W/m2
23:14 41.7 °F 34.7 °F 30.26 in East 14.0 mph 19.0 mph 76% 0.00 in 0.00 W/m2
23:19 41.8 °F 35.1 °F 30.26 in East 2.0 mph 18.0 mph 77% 0.00 in 0.00 W/m2
23:24 41.8 °F 35.1 °F 30.26 in East 7.0 mph 15.0 mph 77% 0.00 in 0.00 W/m2
23:29 41.8 °F 35.1 °F 30.26 in ESE 20.0 mph 20.0 mph 77% 0.00 in 0.00 W/m2
23:34 41.8 °F 35.1 °F 30.26 in East 14.0 mph 16.0 mph 77% 0.00 in 0.00 W/m2
23:39 41.8 °F 35.1 °F 30.26 in ESE 7.0 mph 20.0 mph 77% 0.00 in 0.00 W/m2
23:44 41.8 °F 35.1 °F 30.26 in ESE 13.0 mph 19.0 mph 77% 0.00 in 0.00 W/m2
23:49 41.8 °F 34.8 °F 30.26 in East 2.0 mph 20.0 mph 76% 0.00 in 0.00 W/m2
23:54 41.8 °F 34.5 °F 30.26 in East 15.0 mph 15.0 mph 75% 0.00 in 0.00 W/m2
23:59 41.8 °F 34.5 °F 30.26 in ENE 2.0 mph 20.0 mph 75% 0.00 in 0.00 W/m2
Foresthill Weather
 WU-history PHP script courtesy of   Juneau County Weather.
powered by Cumulus v1.9.3 (1059)
Ambient Weather VWS v14.00
Top Contact Website Map Copyright © 2007 - 2018 Foresthillweather.com Never base important decisions on this or any weather information obtained from the Internet